This is the latest recevied weather packets stored in our database for station/object WC4PEM-8. If no packets are shown the sender has not sent any weather packets the latest 10 day(s).
| Time | Temp. | Humidity | Pressure | Rain* | Wind** | Luminosity | Snow |
|---|---|---|---|---|---|---|---|
| 1777583471 | 30.56° C | 51% | 1010 hPa | 0 mm | - | - | - |
| 1777583171 | 30° C | 53% | 1010 hPa | 0 mm | - | - | - |
| 1777583019 | 30° C | 53% | 1010.1 hPa | 0 mm | - | - | - |
| 1777582871 | 30° C | 53% | 1010.1 hPa | 0 mm | - | - | - |
| 1777582809 | 31.11° C | 49% | 1010.3 hPa | 0 mm | - | - | - |
| 1777582571 | 30.56° C | 52% | 1010.2 hPa | 0 mm | - | - | - |
| 1777582271 | 30.56° C | 52% | 1010.2 hPa | 0 mm | - | - | - |
| 1777581971 | 31.11° C | 49% | 1010.3 hPa | 0 mm | - | - | - |
| 1777581883 | 32.22° C | 46% | 1010.1 hPa | 0 mm | - | - | - |
| 1777581773 | 31.11° C | 48% | 1010.1 hPa | 0 mm | - | - | - |
| 1777581671 | 31.11° C | 48% | 1010.1 hPa | 0 mm | - | - | - |
| 1777581371 | 31.11° C | 49% | 1010.2 hPa | 0 mm | - | - | - |
| 1777581071 | 31.11° C | 47% | 1010.2 hPa | 0 mm | - | - | - |
| 1777580771 | 31.67° C | 46% | 1010.3 hPa | 0 mm | - | - | - |
| 1777580578 | 32.22° C | 46% | 1010.1 hPa | 0 mm | - | - | - |
| 1777580471 | 32.22° C | 46% | 1010.1 hPa | 0 mm | - | - | - |
| 1777580171 | 32.22° C | 47% | 1010.1 hPa | 0 mm | - | - | - |
| 1777580051 | 31.67° C | 45% | 1010.1 hPa | 0 mm | - | - | - |
| 1777579996 | 31.67° C | 45% | 1010.1 hPa | 0 mm | - | - | - |
| 1777579871 | 31.67° C | 45% | 1010.1 hPa | 0 mm | - | - | - |
| 1777579740 | 32.22° C | 45% | 1010.3 hPa | 0 mm | - | - | - |
| 1777579571 | 31.67° C | 47% | 1010.3 hPa | 0 mm | - | - | - |
| 1777579271 | 31.67° C | 47% | 1010.1 hPa | 0 mm | - | - | - |
| 1777578971 | 31.67° C | 47% | 1010.3 hPa | 0 mm | - | - | - |
| 1777578750 | 31.67° C | 46% | 1010.4 hPa | 0 mm | - | - | - |
* Rain latest hour (hover to see other rain measurements)
** Current wind speed in m/s (hover to see current wind gust speed)